sensor_id;sensor_type;location;lat;lon;timestamp;temperature;humidity
17202;DHT22;8717;53.588;10.176;2023-08-20T00:00:00;18.10;99.90
17202;DHT22;8717;53.588;10.176;2023-08-20T00:02:28;18.00;99.90
17202;DHT22;8717;53.588;10.176;2023-08-20T00:04:57;18.00;99.90
17202;DHT22;8717;53.588;10.176;2023-08-20T00:07:25;18.00;99.90
17202;DHT22;8717;53.588;10.176;2023-08-20T00:09:53;17.90;99.90
17202;DHT22;8717;53.588;10.176;2023-08-20T00:12:20;17.90;99.90
17202;DHT22;8717;53.588;10.176;2023-08-20T00:14:55;17.90;99.90
17202;DHT22;8717;53.588;10.176;2023-08-20T00:17:24;17.80;99.90
17202;DHT22;8717;53.588;10.176;2023-08-20T00:19:53;17.80;99.90
17202;DHT22;8717;53.588;10.176;2023-08-20T00:22:21;17.70;99.90
17202;DHT22;8717;53.588;10.176;2023-08-20T00:24:48;17.70;99.90
17202;DHT22;8717;53.588;10.176;2023-08-20T00:27:17;17.60;99.90
17202;DHT22;8717;53.588;10.176;2023-08-20T00:29:44;17.60;99.90
17202;DHT22;8717;53.588;10.176;2023-08-20T00:32:12;17.60;99.90
17202;DHT22;8717;53.588;10.176;2023-08-20T00:34:38;17.60;99.90
17202;DHT22;8717;53.588;10.176;2023-08-20T00:37:06;17.50;99.90
17202;DHT22;8717;53.588;10.176;2023-08-20T00:39:33;17.50;99.90
17202;DHT22;8717;53.588;10.176;2023-08-20T00:42:00;17.40;99.90
17202;DHT22;8717;53.588;10.176;2023-08-20T00:44:28;17.40;99.90
17202;DHT22;8717;53.588;10.176;2023-08-20T00:46:56;17.40;99.90
17202;DHT22;8717;53.588;10.176;2023-08-20T00:49:24;17.30;99.90
17202;DHT22;8717;53.588;10.176;2023-08-20T00:51:51;17.30;99.90
17202;DHT22;8717;53.588;10.176;2023-08-20T00:54:20;17.20;99.90
17202;DHT22;8717;53.588;10.176;2023-08-20T00:56:48;17.20;99.90
17202;DHT22;8717;53.588;10.176;2023-08-20T00:59:16;17.20;99.90
17202;DHT22;8717;53.588;10.176;2023-08-20T01:01:45;17.10;99.90
17202;DHT22;8717;53.588;10.176;2023-08-20T01:04:12;17.10;99.90
17202;DHT22;8717;53.588;10.176;2023-08-20T01:06:44;17.10;99.90
17202;DHT22;8717;53.588;10.176;2023-08-20T01:09:23;17.00;99.90
17202;DHT22;8717;53.588;10.176;2023-08-20T01:11:57;17.00;99.90
17202;DHT22;8717;53.588;10.176;2023-08-20T01:14:25;16.90;99.90
17202;DHT22;8717;53.588;10.176;2023-08-20T01:16:54;16.90;99.90
17202;DHT22;8717;53.588;10.176;2023-08-20T01:19:22;16.90;99.90
17202;DHT22;8717;53.588;10.176;2023-08-20T01:22:03;16.80;99.90
17202;DHT22;8717;53.588;10.176;2023-08-20T01:24:43;16.70;99.90
17202;DHT22;8717;53.588;10.176;2023-08-20T01:27:25;16.70;99.90
17202;DHT22;8717;53.588;10.176;2023-08-20T01:29:55;16.60;99.90
17202;DHT22;8717;53.588;10.176;2023-08-20T01:32:24;16.60;99.90
17202;DHT22;8717;53.588;10.176;2023-08-20T01:34:52;16.50;99.90
17202;DHT22;8717;53.588;10.176;2023-08-20T01:37:19;16.50;99.90
17202;DHT22;8717;53.588;10.176;2023-08-20T01:39:45;16.50;99.90
17202;DHT22;8717;53.588;10.176;2023-08-20T01:42:12;16.40;99.90
17202;DHT22;8717;53.588;10.176;2023-08-20T01:44:39;16.40;99.90
17202;DHT22;8717;53.588;10.176;2023-08-20T01:47:08;16.40;99.90
17202;DHT22;8717;53.588;10.176;2023-08-20T01:49:35;16.30;99.90
17202;DHT22;8717;53.588;10.176;2023-08-20T01:52:01;16.30;99.90
17202;DHT22;8717;53.588;10.176;2023-08-20T01:54:29;16.20;99.90
17202;DHT22;8717;53.588;10.176;2023-08-20T01:56:56;16.10;99.90
17202;DHT22;8717;53.588;10.176;2023-08-20T01:59:23;16.10;99.90
17202;DHT22;8717;53.588;10.176;2023-08-20T02:01:49;16.10;99.90
17202;DHT22;8717;53.588;10.176;2023-08-20T02:04:17;16.00;99.90
17202;DHT22;8717;53.588;10.176;2023-08-20T02:06:45;16.00;99.90
17202;DHT22;8717;53.588;10.176;2023-08-20T02:09:13;15.90;99.90
17202;DHT22;8717;53.588;10.176;2023-08-20T02:11:40;15.90;99.90
17202;DHT22;8717;53.588;10.176;2023-08-20T02:14:07;15.80;99.90
17202;DHT22;8717;53.588;10.176;2023-08-20T02:16:34;15.80;99.90
17202;DHT22;8717;53.588;10.176;2023-08-20T02:19:00;15.80;99.90
17202;DHT22;8717;53.588;10.176;2023-08-20T02:21:30;15.70;99.90
17202;DHT22;8717;53.588;10.176;2023-08-20T02:23:57;15.70;99.90
17202;DHT22;8717;53.588;10.176;2023-08-20T02:26:24;15.60;99.90
17202;DHT22;8717;53.588;10.176;2023-08-20T02:28:50;15.60;99.90
17202;DHT22;8717;53.588;10.176;2023-08-20T02:31:17;15.60;99.90
17202;DHT22;8717;53.588;10.176;2023-08-20T02:33:47;15.50;99.90
17202;DHT22;8717;53.588;10.176;2023-08-20T02:36:14;15.60;99.90
17202;DHT22;8717;53.588;10.176;2023-08-20T02:38:44;15.50;99.90
17202;DHT22;8717;53.588;10.176;2023-08-20T02:41:11;15.50;99.90
17202;DHT22;8717;53.588;10.176;2023-08-20T02:43:38;15.40;99.90
17202;DHT22;8717;53.588;10.176;2023-08-20T02:46:05;15.40;99.90
17202;DHT22;8717;53.588;10.176;2023-08-20T02:48:33;15.30;99.90
17202;DHT22;8717;53.588;10.176;2023-08-20T02:51:00;15.30;99.90
17202;DHT22;8717;53.588;10.176;2023-08-20T02:53:28;15.30;99.90
17202;DHT22;8717;53.588;10.176;2023-08-20T02:55:56;15.30;99.90
17202;DHT22;8717;53.588;10.176;2023-08-20T02:58:23;15.20;99.90
17202;DHT22;8717;53.588;10.176;2023-08-20T03:00:49;15.20;99.90
17202;DHT22;8717;53.588;10.176;2023-08-20T03:03:16;15.20;99.90
17202;DHT22;8717;53.588;10.176;2023-08-20T03:05:44;15.10;99.90
17202;DHT22;8717;53.588;10.176;2023-08-20T03:08:10;15.10;99.90
17202;DHT22;8717;53.588;10.176;2023-08-20T03:10:37;15.10;99.90
17202;DHT22;8717;53.588;10.176;2023-08-20T03:13:06;15.00;99.90
17202;DHT22;8717;53.588;10.176;2023-08-20T03:15:32;15.00;99.90
17202;DHT22;8717;53.588;10.176;2023-08-20T03:17:59;15.00;99.90
17202;DHT22;8717;53.588;10.176;2023-08-20T03:20:26;15.00;99.90
17202;DHT22;8717;53.588;10.176;2023-08-20T03:22:56;14.90;99.90
17202;DHT22;8717;53.588;10.176;2023-08-20T03:25:24;14.90;99.90
17202;DHT22;8717;53.588;10.176;2023-08-20T03:27:52;14.90;99.90
17202;DHT22;8717;53.588;10.176;2023-08-20T03:30:20;14.90;99.90
17202;DHT22;8717;53.588;10.176;2023-08-20T03:32:47;14.90;99.90
17202;DHT22;8717;53.588;10.176;2023-08-20T03:35:15;14.90;99.90
17202;DHT22;8717;53.588;10.176;2023-08-20T03:37:42;14.90;99.90
17202;DHT22;8717;53.588;10.176;2023-08-20T03:40:10;14.90;99.90
17202;DHT22;8717;53.588;10.176;2023-08-20T03:42:37;14.90;99.90
17202;DHT22;8717;53.588;10.176;2023-08-20T03:45:05;14.90;99.90
17202;DHT22;8717;53.588;10.176;2023-08-20T03:47:33;14.90;99.90
17202;DHT22;8717;53.588;10.176;2023-08-20T03:50:02;14.80;99.90
17202;DHT22;8717;53.588;10.176;2023-08-20T03:52:29;14.80;99.90
17202;DHT22;8717;53.588;10.176;2023-08-20T03:54:56;14.80;99.90
17202;DHT22;8717;53.588;10.176;2023-08-20T03:57:23;14.70;99.90
17202;DHT22;8717;53.588;10.176;2023-08-20T03:59:50;14.70;99.90
17202;DHT22;8717;53.588;10.176;2023-08-20T04:02:17;14.70;99.90
17202;DHT22;8717;53.588;10.176;2023-08-20T04:04:45;14.70;99.90
17202;DHT22;8717;53.588;10.176;2023-08-20T04:07:12;14.70;99.90
17202;DHT22;8717;53.588;10.176;2023-08-20T04:09:39;14.70;99.90
17202;DHT22;8717;53.588;10.176;2023-08-20T04:12:07;14.60;99.90
17202;DHT22;8717;53.588;10.176;2023-08-20T04:14:36;14.60;99.90
17202;DHT22;8717;53.588;10.176;2023-08-20T04:17:03;14.60;99.90
17202;DHT22;8717;53.588;10.176;2023-08-20T04:19:31;14.70;99.90
17202;DHT22;8717;53.588;10.176;2023-08-20T04:21:59;14.70;99.90
17202;DHT22;8717;53.588;10.176;2023-08-20T04:24:26;14.70;99.90
17202;DHT22;8717;53.588;10.176;2023-08-20T04:26:53;14.70;99.90
17202;DHT22;8717;53.588;10.176;2023-08-20T04:29:24;14.80;99.90
17202;DHT22;8717;53.588;10.176;2023-08-20T04:31:52;14.80;99.90
17202;DHT22;8717;53.588;10.176;2023-08-20T04:34:19;14.80;99.90
17202;DHT22;8717;53.588;10.176;2023-08-20T04:36:50;14.80;99.90
17202;DHT22;8717;53.588;10.176;2023-08-20T04:39:18;14.80;99.90
17202;DHT22;8717;53.588;10.176;2023-08-20T04:41:49;14.90;99.90
17202;DHT22;8717;53.588;10.176;2023-08-20T04:44:17;14.90;99.90
17202;DHT22;8717;53.588;10.176;2023-08-20T04:46:45;14.90;99.90
17202;DHT22;8717;53.588;10.176;2023-08-20T04:49:12;14.90;99.90
17202;DHT22;8717;53.588;10.176;2023-08-20T04:51:39;15.00;99.90
17202;DHT22;8717;53.588;10.176;2023-08-20T04:54:06;15.00;99.90
17202;DHT22;8717;53.588;10.176;2023-08-20T04:56:34;15.10;99.90
17202;DHT22;8717;53.588;10.176;2023-08-20T04:59:01;15.10;99.90
17202;DHT22;8717;53.588;10.176;2023-08-20T05:01:47;15.20;99.90
17202;DHT22;8717;53.588;10.176;2023-08-20T05:04:16;15.20;99.90
17202;DHT22;8717;53.588;10.176;2023-08-20T05:06:43;15.30;99.90
17202;DHT22;8717;53.588;10.176;2023-08-20T05:09:09;15.30;99.90
17202;DHT22;8717;53.588;10.176;2023-08-20T05:11:37;15.30;99.90
17202;DHT22;8717;53.588;10.176;2023-08-20T05:14:05;15.40;99.90
17202;DHT22;8717;53.588;10.176;2023-08-20T05:16:31;15.40;99.90
17202;DHT22;8717;53.588;10.176;2023-08-20T05:18:58;15.50;99.90
17202;DHT22;8717;53.588;10.176;2023-08-20T05:21:25;15.60;99.90
17202;DHT22;8717;53.588;10.176;2023-08-20T05:23:52;15.60;99.90
17202;DHT22;8717;53.588;10.176;2023-08-20T05:26:18;15.70;99.90
17202;DHT22;8717;53.588;10.176;2023-08-20T05:28:47;15.80;99.90
17202;DHT22;8717;53.588;10.176;2023-08-20T05:31:13;15.80;99.90
17202;DHT22;8717;53.588;10.176;2023-08-20T05:33:40;15.90;99.90
17202;DHT22;8717;53.588;10.176;2023-08-20T05:36:07;15.90;99.90
17202;DHT22;8717;53.588;10.176;2023-08-20T05:38:34;16.00;99.90
17202;DHT22;8717;53.588;10.176;2023-08-20T05:41:01;16.00;99.90
17202;DHT22;8717;53.588;10.176;2023-08-20T05:43:27;16.00;99.90
17202;DHT22;8717;53.588;10.176;2023-08-20T05:45:56;16.10;99.90
17202;DHT22;8717;53.588;10.176;2023-08-20T05:48:23;16.10;99.90
17202;DHT22;8717;53.588;10.176;2023-08-20T05:50:49;16.10;99.90
17202;DHT22;8717;53.588;10.176;2023-08-20T05:53:16;16.20;99.90
17202;DHT22;8717;53.588;10.176;2023-08-20T05:55:45;16.20;99.90
17202;DHT22;8717;53.588;10.176;2023-08-20T05:58:12;16.30;99.90
17202;DHT22;8717;53.588;10.176;2023-08-20T06:00:39;16.30;99.90
17202;DHT22;8717;53.588;10.176;2023-08-20T06:03:08;16.40;99.90
17202;DHT22;8717;53.588;10.176;2023-08-20T06:05:34;16.40;99.90
17202;DHT22;8717;53.588;10.176;2023-08-20T06:08:01;16.50;99.90
17202;DHT22;8717;53.588;10.176;2023-08-20T06:10:28;16.60;99.90
17202;DHT22;8717;53.588;10.176;2023-08-20T06:12:55;16.70;99.90
17202;DHT22;8717;53.588;10.176;2023-08-20T06:15:22;16.80;99.90
17202;DHT22;8717;53.588;10.176;2023-08-20T06:17:49;16.90;99.90
17202;DHT22;8717;53.588;10.176;2023-08-20T06:20:17;17.00;99.90
17202;DHT22;8717;53.588;10.176;2023-08-20T06:22:44;17.10;99.90
17202;DHT22;8717;53.588;10.176;2023-08-20T06:25:11;17.20;99.90
17202;DHT22;8717;53.588;10.176;2023-08-20T06:27:37;17.30;99.90
17202;DHT22;8717;53.588;10.176;2023-08-20T06:30:05;17.30;99.90
17202;DHT22;8717;53.588;10.176;2023-08-20T06:32:32;17.40;99.90
17202;DHT22;8717;53.588;10.176;2023-08-20T06:34:59;17.50;99.90
17202;DHT22;8717;53.588;10.176;2023-08-20T06:37:27;17.50;99.90
17202;DHT22;8717;53.588;10.176;2023-08-20T06:39:53;17.60;99.90
17202;DHT22;8717;53.588;10.176;2023-08-20T06:42:20;17.70;99.90
17202;DHT22;8717;53.588;10.176;2023-08-20T06:44:47;17.80;99.90
17202;DHT22;8717;53.588;10.176;2023-08-20T06:47:13;17.80;99.90
17202;DHT22;8717;53.588;10.176;2023-08-20T06:49:40;17.80;99.90
17202;DHT22;8717;53.588;10.176;2023-08-20T06:52:07;17.90;99.90
17202;DHT22;8717;53.588;10.176;2023-08-20T06:54:35;17.90;99.90
17202;DHT22;8717;53.588;10.176;2023-08-20T06:57:02;18.00;99.90
17202;DHT22;8717;53.588;10.176;2023-08-20T06:59:28;18.10;99.90
17202;DHT22;8717;53.588;10.176;2023-08-20T07:01:55;18.20;99.90
17202;DHT22;8717;53.588;10.176;2023-08-20T07:04:22;18.30;99.90
17202;DHT22;8717;53.588;10.176;2023-08-20T07:06:50;18.40;99.90
17202;DHT22;8717;53.588;10.176;2023-08-20T07:09:16;18.50;99.90
17202;DHT22;8717;53.588;10.176;2023-08-20T07:11:44;18.50;99.90
17202;DHT22;8717;53.588;10.176;2023-08-20T07:14:11;18.60;99.90
17202;DHT22;8717;53.588;10.176;2023-08-20T07:16:38;18.60;99.90
17202;DHT22;8717;53.588;10.176;2023-08-20T07:19:04;18.60;99.90
17202;DHT22;8717;53.588;10.176;2023-08-20T07:21:31;18.50;99.90
17202;DHT22;8717;53.588;10.176;2023-08-20T07:23:58;18.50;99.90
17202;DHT22;8717;53.588;10.176;2023-08-20T07:26:24;18.50;99.90
17202;DHT22;8717;53.588;10.176;2023-08-20T07:28:52;18.60;99.90
17202;DHT22;8717;53.588;10.176;2023-08-20T07:31:26;18.70;99.90
17202;DHT22;8717;53.588;10.176;2023-08-20T07:33:53;18.80;99.90
17202;DHT22;8717;53.588;10.176;2023-08-20T07:36:21;19.00;99.90
17202;DHT22;8717;53.588;10.176;2023-08-20T07:38:49;19.20;99.90
17202;DHT22;8717;53.588;10.176;2023-08-20T07:41:16;19.40;99.90
17202;DHT22;8717;53.588;10.176;2023-08-20T07:43:45;19.60;99.90
17202;DHT22;8717;53.588;10.176;2023-08-20T07:46:13;19.70;99.90
17202;DHT22;8717;53.588;10.176;2023-08-20T07:48:40;19.80;99.90
17202;DHT22;8717;53.588;10.176;2023-08-20T07:51:07;19.90;99.90
17202;DHT22;8717;53.588;10.176;2023-08-20T07:53:34;20.10;99.90
17202;DHT22;8717;53.588;10.176;2023-08-20T07:56:01;20.20;99.90
17202;DHT22;8717;53.588;10.176;2023-08-20T07:58:28;20.30;99.90
17202;DHT22;8717;53.588;10.176;2023-08-20T08:00:55;20.50;99.90
17202;DHT22;8717;53.588;10.176;2023-08-20T08:03:24;20.70;99.90
17202;DHT22;8717;53.588;10.176;2023-08-20T08:05:51;20.80;99.90
17202;DHT22;8717;53.588;10.176;2023-08-20T08:08:19;20.80;99.90
17202;DHT22;8717;53.588;10.176;2023-08-20T08:10:46;21.00;99.90
17202;DHT22;8717;53.588;10.176;2023-08-20T08:13:14;21.20;99.90
17202;DHT22;8717;53.588;10.176;2023-08-20T08:15:41;21.50;99.90
17202;DHT22;8717;53.588;10.176;2023-08-20T08:18:07;22.00;99.90
17202;DHT22;8717;53.588;10.176;2023-08-20T08:20:35;22.40;99.90
17202;DHT22;8717;53.588;10.176;2023-08-20T08:23:02;22.70;99.90
17202;DHT22;8717;53.588;10.176;2023-08-20T08:25:29;23.00;99.90
17202;DHT22;8717;53.588;10.176;2023-08-20T08:27:56;23.40;99.90
17202;DHT22;8717;53.588;10.176;2023-08-20T08:30:22;23.80;99.90
17202;DHT22;8717;53.588;10.176;2023-08-20T08:32:49;24.30;99.90
17202;DHT22;8717;53.588;10.176;2023-08-20T08:35:16;24.70;99.90
17202;DHT22;8717;53.588;10.176;2023-08-20T08:37:44;25.30;99.90
17202;DHT22;8717;53.588;10.176;2023-08-20T08:40:11;25.70;99.90
17202;DHT22;8717;53.588;10.176;2023-08-20T08:42:38;26.30;99.90
17202;DHT22;8717;53.588;10.176;2023-08-20T08:45:07;26.70;99.90
17202;DHT22;8717;53.588;10.176;2023-08-20T08:47:35;27.10;99.90
17202;DHT22;8717;53.588;10.176;2023-08-20T08:50:03;27.30;99.90
17202;DHT22;8717;53.588;10.176;2023-08-20T08:52:30;27.60;99.90
17202;DHT22;8717;53.588;10.176;2023-08-20T08:54:59;27.80;99.90
17202;DHT22;8717;53.588;10.176;2023-08-20T08:57:26;28.20;99.90
17202;DHT22;8717;53.588;10.176;2023-08-20T08:59:52;28.50;99.90
17202;DHT22;8717;53.588;10.176;2023-08-20T09:02:19;28.90;99.90
17202;DHT22;8717;53.588;10.176;2023-08-20T09:04:46;29.20;99.90
17202;DHT22;8717;53.588;10.176;2023-08-20T09:07:14;29.70;99.90
17202;DHT22;8717;53.588;10.176;2023-08-20T09:09:42;30.10;99.40
17202;DHT22;8717;53.588;10.176;2023-08-20T09:12:17;30.50;98.10
17202;DHT22;8717;53.588;10.176;2023-08-20T09:14:46;30.80;96.90
17202;DHT22;8717;53.588;10.176;2023-08-20T09:17:14;31.20;97.30
17202;DHT22;8717;53.588;10.176;2023-08-20T09:19:43;31.50;97.00
17202;DHT22;8717;53.588;10.176;2023-08-20T09:22:11;31.90;95.60
17202;DHT22;8717;53.588;10.176;2023-08-20T09:24:40;32.10;94.50
17202;DHT22;8717;53.588;10.176;2023-08-20T09:27:08;32.30;93.80
17202;DHT22;8717;53.588;10.176;2023-08-20T09:29:44;32.50;94.10
17202;DHT22;8717;53.588;10.176;2023-08-20T09:32:14;32.50;92.10
17202;DHT22;8717;53.588;10.176;2023-08-20T09:34:41;32.60;92.20
17202;DHT22;8717;53.588;10.176;2023-08-20T09:37:08;32.70;92.80
17202;DHT22;8717;53.588;10.176;2023-08-20T09:39:36;32.70;92.30
17202;DHT22;8717;53.588;10.176;2023-08-20T09:42:04;32.80;91.60
17202;DHT22;8717;53.588;10.176;2023-08-20T09:44:33;32.90;91.80
17202;DHT22;8717;53.588;10.176;2023-08-20T09:47:05;33.10;91.30
17202;DHT22;8717;53.588;10.176;2023-08-20T09:49:36;33.30;91.20
17202;DHT22;8717;53.588;10.176;2023-08-20T09:52:04;33.50;90.20
17202;DHT22;8717;53.588;10.176;2023-08-20T09:54:39;33.60;87.70
17202;DHT22;8717;53.588;10.176;2023-08-20T09:57:14;33.80;87.80
17202;DHT22;8717;53.588;10.176;2023-08-20T09:59:45;33.80;85.60
17202;DHT22;8717;53.588;10.176;2023-08-20T10:02:14;33.80;85.40
17202;DHT22;8717;53.588;10.176;2023-08-20T10:04:42;33.80;85.20
17202;DHT22;8717;53.588;10.176;2023-08-20T10:07:10;33.80;86.30
17202;DHT22;8717;53.588;10.176;2023-08-20T10:09:38;33.90;83.70
17202;DHT22;8717;53.588;10.176;2023-08-20T10:12:05;33.90;85.80
17202;DHT22;8717;53.588;10.176;2023-08-20T10:14:33;33.90;85.40
17202;DHT22;8717;53.588;10.176;2023-08-20T10:17:06;34.10;85.60
17202;DHT22;8717;53.588;10.176;2023-08-20T10:19:35;34.10;82.30
17202;DHT22;8717;53.588;10.176;2023-08-20T10:22:02;34.30;83.70
17202;DHT22;8717;53.588;10.176;2023-08-20T10:24:40;34.40;82.80
17202;DHT22;8717;53.588;10.176;2023-08-20T10:27:08;34.40;81.00
17202;DHT22;8717;53.588;10.176;2023-08-20T10:29:36;34.50;81.40
17202;DHT22;8717;53.588;10.176;2023-08-20T10:32:08;34.50;80.60
17202;DHT22;8717;53.588;10.176;2023-08-20T10:34:37;34.60;80.60
17202;DHT22;8717;53.588;10.176;2023-08-20T10:37:09;34.50;79.90
17202;DHT22;8717;53.588;10.176;2023-08-20T10:39:36;34.50;78.90
17202;DHT22;8717;53.588;10.176;2023-08-20T10:42:13;34.40;78.30
17202;DHT22;8717;53.588;10.176;2023-08-20T10:44:56;34.20;77.80
17202;DHT22;8717;53.588;10.176;2023-08-20T10:47:24;33.90;77.10
17202;DHT22;8717;53.588;10.176;2023-08-20T10:49:53;33.70;78.40
17202;DHT22;8717;53.588;10.176;2023-08-20T10:52:19;33.40;79.90
17202;DHT22;8717;53.588;10.176;2023-08-20T10:54:49;33.30;81.00
17202;DHT22;8717;53.588;10.176;2023-08-20T10:57:17;33.30;80.00
17202;DHT22;8717;53.588;10.176;2023-08-20T10:59:56;33.30;80.40
17202;DHT22;8717;53.588;10.176;2023-08-20T11:02:23;33.30;79.60
17202;DHT22;8717;53.588;10.176;2023-08-20T11:04:52;33.20;79.90
17202;DHT22;8717;53.588;10.176;2023-08-20T11:07:20;33.20;79.50
17202;DHT22;8717;53.588;10.176;2023-08-20T11:09:46;33.20;79.60
17202;DHT22;8717;53.588;10.176;2023-08-20T11:12:14;33.30;79.30
17202;DHT22;8717;53.588;10.176;2023-08-20T11:14:41;33.40;80.20
17202;DHT22;8717;53.588;10.176;2023-08-20T11:17:07;33.50;78.60
17202;DHT22;8717;53.588;10.176;2023-08-20T11:19:35;33.60;78.10
17202;DHT22;8717;53.588;10.176;2023-08-20T11:22:03;33.60;77.10
17202;DHT22;8717;53.588;10.176;2023-08-20T11:24:30;33.60;76.50
17202;DHT22;8717;53.588;10.176;2023-08-20T11:26:57;33.40;75.50
17202;DHT22;8717;53.588;10.176;2023-08-20T11:29:25;33.20;75.10
17202;DHT22;8717;53.588;10.176;2023-08-20T11:31:52;33.00;75.20
17202;DHT22;8717;53.588;10.176;2023-08-20T11:34:19;32.80;75.60
17202;DHT22;8717;53.588;10.176;2023-08-20T11:36:46;32.60;76.30
17202;DHT22;8717;53.588;10.176;2023-08-20T11:39:15;32.40;76.90
17202;DHT22;8717;53.588;10.176;2023-08-20T11:41:43;32.20;76.90
17202;DHT22;8717;53.588;10.176;2023-08-20T11:44:10;32.20;78.80
17202;DHT22;8717;53.588;10.176;2023-08-20T11:46:42;32.20;79.70
17202;DHT22;8717;53.588;10.176;2023-08-20T11:49:10;32.30;77.60
17202;DHT22;8717;53.588;10.176;2023-08-20T11:51:38;32.40;78.60
17202;DHT22;8717;53.588;10.176;2023-08-20T11:54:05;32.60;78.40
17202;DHT22;8717;53.588;10.176;2023-08-20T11:56:34;32.70;77.20
17202;DHT22;8717;53.588;10.176;2023-08-20T11:59:02;32.70;76.30
17202;DHT22;8717;53.588;10.176;2023-08-20T12:01:32;32.70;76.40
17202;DHT22;8717;53.588;10.176;2023-08-20T12:04:04;32.70;75.80
17202;DHT22;8717;53.588;10.176;2023-08-20T12:06:31;32.70;76.50
17202;DHT22;8717;53.588;10.176;2023-08-20T12:08:57;32.70;76.30
17202;DHT22;8717;53.588;10.176;2023-08-20T12:11:24;32.70;76.50
17202;DHT22;8717;53.588;10.176;2023-08-20T12:13:54;32.70;76.10
17202;DHT22;8717;53.588;10.176;2023-08-20T12:16:22;32.80;75.60
17202;DHT22;8717;53.588;10.176;2023-08-20T12:18:49;32.70;75.30
17202;DHT22;8717;53.588;10.176;2023-08-20T12:21:16;32.70;75.50
17202;DHT22;8717;53.588;10.176;2023-08-20T12:23:43;32.60;75.30
17202;DHT22;8717;53.588;10.176;2023-08-20T12:26:09;32.50;75.30
17202;DHT22;8717;53.588;10.176;2023-08-20T12:28:36;32.40;75.90
17202;DHT22;8717;53.588;10.176;2023-08-20T12:31:04;32.50;77.00
17202;DHT22;8717;53.588;10.176;2023-08-20T12:33:31;32.60;76.50
17202;DHT22;8717;53.588;10.176;2023-08-20T12:35:58;32.60;75.50
17202;DHT22;8717;53.588;10.176;2023-08-20T12:38:25;32.70;75.50
17202;DHT22;8717;53.588;10.176;2023-08-20T12:40:51;32.70;74.50
17202;DHT22;8717;53.588;10.176;2023-08-20T12:43:18;32.70;75.00
17202;DHT22;8717;53.588;10.176;2023-08-20T12:45:45;32.70;75.40
17202;DHT22;8717;53.588;10.176;2023-08-20T12:48:13;32.80;75.30
17202;DHT22;8717;53.588;10.176;2023-08-20T12:50:40;32.90;74.40
17202;DHT22;8717;53.588;10.176;2023-08-20T12:53:06;33.00;74.00
17202;DHT22;8717;53.588;10.176;2023-08-20T12:55:33;33.00;74.10
17202;DHT22;8717;53.588;10.176;2023-08-20T12:58:00;33.00;73.80
17202;DHT22;8717;53.588;10.176;2023-08-20T13:00:27;33.00;73.10
17202;DHT22;8717;53.588;10.176;2023-08-20T13:02:54;32.90;73.70
17202;DHT22;8717;53.588;10.176;2023-08-20T13:05:24;32.80;72.50
17202;DHT22;8717;53.588;10.176;2023-08-20T13:07:51;32.70;71.50
17202;DHT22;8717;53.588;10.176;2023-08-20T13:10:19;32.70;72.60
17202;DHT22;8717;53.588;10.176;2023-08-20T13:12:48;32.50;72.80
17202;DHT22;8717;53.588;10.176;2023-08-20T13:15:16;32.40;73.30
17202;DHT22;8717;53.588;10.176;2023-08-20T13:17:45;32.40;72.90
17202;DHT22;8717;53.588;10.176;2023-08-20T13:20:12;32.30;73.00
17202;DHT22;8717;53.588;10.176;2023-08-20T13:22:40;32.20;72.80
17202;DHT22;8717;53.588;10.176;2023-08-20T13:25:09;32.20;72.50
17202;DHT22;8717;53.588;10.176;2023-08-20T13:27:36;32.20;73.10
17202;DHT22;8717;53.588;10.176;2023-08-20T13:30:03;32.20;73.00
17202;DHT22;8717;53.588;10.176;2023-08-20T13:32:30;32.20;73.20
17202;DHT22;8717;53.588;10.176;2023-08-20T13:34:56;32.20;73.50
17202;DHT22;8717;53.588;10.176;2023-08-20T13:37:23;32.10;72.90
17202;DHT22;8717;53.588;10.176;2023-08-20T13:39:51;32.10;73.80
17202;DHT22;8717;53.588;10.176;2023-08-20T13:42:18;32.20;71.50
17202;DHT22;8717;53.588;10.176;2023-08-20T13:44:45;32.10;71.70
17202;DHT22;8717;53.588;10.176;2023-08-20T13:47:11;32.10;72.20
17202;DHT22;8717;53.588;10.176;2023-08-20T13:49:38;32.10;71.90
17202;DHT22;8717;53.588;10.176;2023-08-20T13:52:05;32.10;72.50
17202;DHT22;8717;53.588;10.176;2023-08-20T13:54:32;32.10;72.60
17202;DHT22;8717;53.588;10.176;2023-08-20T13:57:00;32.00;72.60
17202;DHT22;8717;53.588;10.176;2023-08-20T13:59:28;32.10;72.90
17202;DHT22;8717;53.588;10.176;2023-08-20T14:01:55;32.00;72.50
17202;DHT22;8717;53.588;10.176;2023-08-20T14:04:22;32.00;73.10
17202;DHT22;8717;53.588;10.176;2023-08-20T14:06:48;32.00;72.30
17202;DHT22;8717;53.588;10.176;2023-08-20T14:09:15;31.90;72.60
17202;DHT22;8717;53.588;10.176;2023-08-20T14:11:42;31.80;72.20
17202;DHT22;8717;53.588;10.176;2023-08-20T14:14:10;31.60;72.50
17202;DHT22;8717;53.588;10.176;2023-08-20T14:16:37;31.40;72.80
17202;DHT22;8717;53.588;10.176;2023-08-20T14:19:04;31.20;73.60
17202;DHT22;8717;53.588;10.176;2023-08-20T14:21:31;30.90;73.70
17202;DHT22;8717;53.588;10.176;2023-08-20T14:23:58;30.70;74.00
17202;DHT22;8717;53.588;10.176;2023-08-20T14:26:24;30.40;74.70
17202;DHT22;8717;53.588;10.176;2023-08-20T14:28:52;30.20;74.90
17202;DHT22;8717;53.588;10.176;2023-08-20T14:31:20;30.00;75.60
17202;DHT22;8717;53.588;10.176;2023-08-20T14:33:47;30.00;76.90
17202;DHT22;8717;53.588;10.176;2023-08-20T14:36:13;29.90;77.00
17202;DHT22;8717;53.588;10.176;2023-08-20T14:38:40;29.90;77.50
17202;DHT22;8717;53.588;10.176;2023-08-20T14:41:07;30.00;77.40
17202;DHT22;8717;53.588;10.176;2023-08-20T14:43:34;30.00;77.10
17202;DHT22;8717;53.588;10.176;2023-08-20T14:46:00;30.00;77.20
17202;DHT22;8717;53.588;10.176;2023-08-20T14:48:29;30.10;78.20
17202;DHT22;8717;53.588;10.176;2023-08-20T14:50:55;30.10;76.60
17202;DHT22;8717;53.588;10.176;2023-08-20T14:53:22;30.10;77.10
17202;DHT22;8717;53.588;10.176;2023-08-20T14:55:49;30.00;77.20
17202;DHT22;8717;53.588;10.176;2023-08-20T14:58:15;29.90;77.20
17202;DHT22;8717;53.588;10.176;2023-08-20T15:00:42;29.90;77.20
17202;DHT22;8717;53.588;10.176;2023-08-20T15:03:09;29.80;77.60
17202;DHT22;8717;53.588;10.176;2023-08-20T15:05:37;29.70;78.30
17202;DHT22;8717;53.588;10.176;2023-08-20T15:08:04;29.60;77.90
17202;DHT22;8717;53.588;10.176;2023-08-20T15:10:31;29.50;77.70
17202;DHT22;8717;53.588;10.176;2023-08-20T15:12:57;29.40;77.60
17202;DHT22;8717;53.588;10.176;2023-08-20T15:15:24;29.20;78.00
17202;DHT22;8717;53.588;10.176;2023-08-20T15:17:54;29.20;78.30
17202;DHT22;8717;53.588;10.176;2023-08-20T15:20:20;29.10;78.80
17202;DHT22;8717;53.588;10.176;2023-08-20T15:22:49;29.00;78.80
17202;DHT22;8717;53.588;10.176;2023-08-20T15:25:15;29.00;79.20
17202;DHT22;8717;53.588;10.176;2023-08-20T15:27:43;29.00;79.40
17202;DHT22;8717;53.588;10.176;2023-08-20T15:30:10;28.90;79.00
17202;DHT22;8717;53.588;10.176;2023-08-20T15:32:37;28.80;78.90